Kamiiso, Japan
Current Conditions -  °F | °C
As of 8:00 PM on Wednesday 28 Jan 2015 (Local Time) from RJCH Reporting Station
Snow Showers Snow Showers  
Wind Chill: 14°   Ceiling: 5000
Heat Index: 21°   Visibility: 6mi
Dew Point: 16°   Wind: 6mph
Humidity: 80%   Direction: 320°NW
Pressure: 30.09"   Gusts: NA
Location:  41.83°N, 140.67°E
Report Text: RJCH 281100Z 32005KT 290V350 9999 -SHSN FEW010 SCT025 BKN050 M06/M09 Q1019
Loading
Personal Weather Stations






























Interactive Weather Map New forecast layout! Learn more

10-Day Weather Forecast

Advertisements
Track Severe Weather on mobile